createdAt,value
2024-01-15T00:01:35.302Z,0.61
2024-01-15T00:07:01.208Z,0.56
2024-01-15T00:12:28.577Z,0.53
2024-01-15T00:17:47.284Z,0.50
2024-01-15T00:23:13.168Z,0.47
2024-01-15T00:28:31.283Z,0.47
2024-01-15T00:33:57.095Z,0.45
2024-01-15T00:39:22.829Z,0.47
2024-01-15T00:44:48.538Z,0.47
2024-01-15T00:50:14.273Z,0.48
2024-01-15T00:55:32.783Z,0.47
2024-01-15T01:00:57.151Z,0.43
2024-01-15T01:06:23.180Z,0.38
2024-01-15T01:11:41.591Z,0.30
2024-01-15T01:17:07.304Z,0.21
2024-01-15T01:22:33.021Z,0.10
2024-01-15T01:27:59.058Z,0.06
2024-01-15T01:33:25.199Z,0.04
2024-01-15T01:38:50.970Z,0.06
2024-01-15T01:44:16.658Z,0.06
2024-01-15T01:49:42.621Z,0.08
2024-01-15T01:55:08.896Z,0.09
2024-01-15T02:00:36.908Z,0.08
2024-01-15T02:06:04.386Z,0.07
2024-01-15T02:11:30.156Z,0.04
2024-01-15T02:16:55.826Z,0.01
2024-01-15T02:22:21.511Z,-0.01
2024-01-15T02:27:39.986Z,-0.04
2024-01-15T02:33:06.223Z,-0.02
2024-01-15T02:38:32.128Z,-0.02
2024-01-15T02:43:57.809Z,-0.04
2024-01-15T02:49:22.531Z,-0.05
2024-01-15T02:54:48.372Z,-0.02
2024-01-15T03:00:14.423Z,0.01
2024-01-15T03:05:40.510Z,0.04
2024-01-15T03:11:06.194Z,0.07
2024-01-15T03:16:32.946Z,0.08
2024-01-15T03:21:58.636Z,0.11
2024-01-15T03:27:24.847Z,0.11
2024-01-15T03:32:50.967Z,0.13
2024-01-15T03:38:15.389Z,0.14
2024-01-15T03:43:41.180Z,0.15
2024-01-15T03:49:06.933Z,0.16
2024-01-15T03:54:32.791Z,0.16
2024-01-15T03:59:50.794Z,0.17
2024-01-15T04:05:14.851Z,0.20
2024-01-15T04:10:40.519Z,0.21
2024-01-15T04:16:06.255Z,0.22
2024-01-15T04:21:31.932Z,0.23
2024-01-15T04:26:57.610Z,0.24
2024-01-15T04:32:23.573Z,0.23
2024-01-15T04:37:49.317Z,0.24
2024-01-15T04:43:14.933Z,0.25
2024-01-15T04:48:40.791Z,0.26
2024-01-15T04:54:07.158Z,0.28
2024-01-15T04:59:32.960Z,0.29
2024-01-15T05:04:58.618Z,0.30
2024-01-15T05:10:24.556Z,0.30
2024-01-15T05:15:50.412Z,0.31
2024-01-15T05:21:16.157Z,0.34
2024-01-15T05:26:41.846Z,0.36
2024-01-15T05:32:07.646Z,0.29
2024-01-15T05:37:33.442Z,0.26
2024-01-15T05:42:59.207Z,0.27
2024-01-15T05:48:25.435Z,0.32
2024-01-15T05:53:52.671Z,0.37
2024-01-15T05:59:14.940Z,0.41
2024-01-15T06:04:41.667Z,0.46
2024-01-15T06:10:00.275Z,0.47
2024-01-15T06:15:25.835Z,0.47
2024-01-15T06:20:43.889Z,0.47
2024-01-15T06:26:09.655Z,0.49
2024-01-15T06:31:35.560Z,0.52
2024-01-15T06:37:01.446Z,0.56
2024-01-15T06:42:27.982Z,0.60
2024-01-15T06:47:53.775Z,0.60
2024-01-15T06:53:19.630Z,0.59
2024-01-15T06:58:45.311Z,0.57
2024-01-15T07:04:11.060Z,0.57
2024-01-15T07:09:36.866Z,0.61
2024-01-15T07:15:02.586Z,0.54
2024-01-15T07:20:30.375Z,0.47
2024-01-15T07:25:56.125Z,0.46
2024-01-15T07:31:21.941Z,0.41
2024-01-15T07:36:47.780Z,0.37
2024-01-15T07:42:13.678Z,0.39
2024-01-15T07:47:39.361Z,0.44
2024-01-15T07:53:05.063Z,0.49
2024-01-15T07:58:30.899Z,0.57
2024-01-15T08:03:56.797Z,0.60
2024-01-15T08:09:22.584Z,0.59
2024-01-15T08:14:48.272Z,0.63
2024-01-15T08:20:06.849Z,0.66
2024-01-15T08:25:33.003Z,0.70
2024-01-15T08:30:58.879Z,0.74
2024-01-15T08:36:25.704Z,0.75
2024-01-15T08:41:51.533Z,0.78
2024-01-15T08:47:17.162Z,0.78
2024-01-15T08:52:42.845Z,0.80
2024-01-15T08:58:08.530Z,0.79
2024-01-15T09:03:19.434Z,0.78
2024-01-15T09:08:28.836Z,0.77
2024-01-15T09:13:54.491Z,0.80
2024-01-15T09:19:20.259Z,0.83
2024-01-15T09:24:46.008Z,0.84
2024-01-15T09:30:04.414Z,0.87
2024-01-15T09:35:30.005Z,0.92
2024-01-15T09:40:59.625Z,1.00
2024-01-15T09:46:18.616Z,1.14
2024-01-15T09:51:47.203Z,1.20
2024-01-15T09:57:17.434Z,1.25
2024-01-15T10:02:35.834Z,1.34
2024-01-15T10:08:02.584Z,1.47
2024-01-15T10:13:27.804Z,1.61
2024-01-15T10:18:47.129Z,1.71
2024-01-15T10:24:13.092Z,1.74
2024-01-15T10:29:39.006Z,1.71
2024-01-15T10:35:04.783Z,1.64
2024-01-15T10:40:31.675Z,1.56
2024-01-15T10:45:57.570Z,1.51
2024-01-15T10:51:26.323Z,1.51
2024-01-15T10:56:52.938Z,1.56
2024-01-15T11:02:17.571Z,1.58
2024-01-15T11:07:46.652Z,1.66
2024-01-15T11:13:06.761Z,1.69
2024-01-15T11:18:32.666Z,1.70
2024-01-15T11:24:09.407Z,1.73
2024-01-15T11:29:53.054Z,1.77
2024-01-15T11:35:20.291Z,1.81
2024-01-15T11:41:00.023Z,1.77
2024-01-15T11:46:32.017Z,1.72
2024-01-15T11:51:56.752Z,1.56
2024-01-15T11:57:25.611Z,1.48
2024-01-15T12:02:51.351Z,1.40
2024-01-15T12:08:15.819Z,1.26
2024-01-15T12:13:42.223Z,1.15
2024-01-15T12:19:07.969Z,1.08
2024-01-15T12:24:33.755Z,1.05
2024-01-15T12:30:00.708Z,1.07
2024-01-15T12:35:27.940Z,1.03
2024-01-15T12:40:54.777Z,0.98
2024-01-15T12:46:20.748Z,0.92
2024-01-15T12:51:39.540Z,0.84
2024-01-15T12:57:05.193Z,0.82
2024-01-15T13:02:30.987Z,0.83
2024-01-15T13:07:56.609Z,0.82
2024-01-15T13:13:22.301Z,0.85
2024-01-15T13:18:48.074Z,0.85
2024-01-15T13:24:14.140Z,0.87
2024-01-15T13:29:39.844Z,0.84
2024-01-15T13:35:09.098Z,0.87
2024-01-15T13:40:35.245Z,0.88
2024-01-15T13:46:01.100Z,0.90
2024-01-15T13:51:27.348Z,0.89
2024-01-15T13:56:53.064Z,0.89
2024-01-15T14:02:21.200Z,0.90
2024-01-15T14:07:48.136Z,0.89
2024-01-15T14:13:13.792Z,0.87
2024-01-15T14:18:39.609Z,0.88
2024-01-15T14:24:06.138Z,0.86
2024-01-15T14:29:31.707Z,0.83
2024-01-15T14:34:58.858Z,0.84
2024-01-15T14:40:24.964Z,0.84
2024-01-15T14:45:50.863Z,0.80
2024-01-15T14:51:16.515Z,0.76
2024-01-15T14:56:42.765Z,0.76
2024-01-15T15:02:09.469Z,0.73
2024-01-15T15:07:36.358Z,0.67
2024-01-15T15:13:02.201Z,0.63
2024-01-15T15:18:28.106Z,0.55
2024-01-15T15:23:53.863Z,0.49
2024-01-15T15:29:19.537Z,0.40
2024-01-15T15:34:45.384Z,0.34
2024-01-15T15:40:03.835Z,0.29
2024-01-15T15:45:30.786Z,0.25
2024-01-15T15:50:54.893Z,0.20
2024-01-15T15:56:20.529Z,0.17
2024-01-15T16:01:46.306Z,0.14
2024-01-15T16:07:12.089Z,0.10
2024-01-15T16:12:36.506Z,0.07
2024-01-15T16:23:18.076Z,0.04
2024-01-15T16:24:08.204Z,-0.00
2024-01-15T16:29:28.435Z,-0.03
2024-01-15T16:34:54.141Z,-0.06
2024-01-15T16:40:12.396Z,-0.07
2024-01-15T16:45:38.145Z,-0.10
2024-01-15T16:51:04.073Z,-0.11
2024-01-15T16:56:29.824Z,-0.15
2024-01-15T17:01:55.625Z,-0.17
2024-01-15T17:07:21.285Z,-0.20
2024-01-15T17:12:46.959Z,-0.22
2024-01-15T17:18:12.721Z,-0.23
2024-01-15T17:23:38.738Z,-0.22
2024-01-15T17:29:04.544Z,-0.21
2024-01-15T17:34:30.320Z,-0.17
2024-01-15T17:39:56.028Z,-0.15
2024-01-15T17:45:21.715Z,-0.13
2024-01-15T17:50:47.980Z,-0.10
2024-01-15T17:56:13.886Z,-0.08
2024-01-15T18:01:39.930Z,-0.09
2024-01-15T18:07:05.707Z,-0.08
2024-01-15T18:12:30.457Z,-0.15
2024-01-15T18:17:56.291Z,-0.20
2024-01-15T18:23:22.024Z,-0.27
2024-01-15T18:28:47.743Z,-0.33
2024-01-15T18:34:15.569Z,-0.42
2024-01-15T18:39:41.667Z,-0.48
2024-01-15T18:45:07.363Z,-0.58
2024-01-15T18:50:33.283Z,-0.66
2024-01-15T18:55:59.191Z,-0.73
2024-01-15T19:01:25.087Z,-0.77
2024-01-15T19:06:50.819Z,-0.76
2024-01-15T19:12:16.662Z,-0.77
2024-01-15T19:17:42.412Z,-0.79
2024-01-15T19:23:07.020Z,-0.78
2024-01-15T19:28:32.708Z,-0.80
2024-01-15T19:33:58.682Z,-0.82
2024-01-15T19:39:24.531Z,-0.86
2024-01-15T19:44:50.418Z,-0.91
2024-01-15T19:50:16.187Z,-0.93
2024-01-15T19:55:41.992Z,-0.97
2024-01-15T20:01:07.770Z,-0.99
2024-01-15T20:06:33.744Z,-0.98
2024-01-15T20:11:59.535Z,-1.00
2024-01-15T20:17:26.348Z,-1.04
2024-01-15T20:22:52.189Z,-1.08
2024-01-15T20:28:08.045Z,-1.08
2024-01-15T20:33:34.573Z,-1.07
2024-01-15T20:39:00.680Z,-1.05
2024-01-15T20:44:26.619Z,-1.04
2024-01-15T20:49:52.325Z,-1.04
2024-01-15T20:55:17.997Z,-1.04
2024-01-15T21:00:43.950Z,-1.05
2024-01-15T21:06:10.822Z,-1.04
2024-01-15T21:11:36.703Z,-1.04
2024-01-15T21:16:54.704Z,-1.07
2024-01-15T21:22:20.440Z,-1.08
2024-01-15T21:27:46.191Z,-1.10
2024-01-15T21:33:11.971Z,-1.14
2024-01-15T21:38:37.861Z,-1.16
2024-01-15T21:44:01.911Z,-1.17
2024-01-15T21:49:27.790Z,-1.17
2024-01-15T21:54:53.635Z,-1.14
2024-01-15T22:00:19.311Z,-1.13
2024-01-15T22:05:45.008Z,-1.14
2024-01-15T22:11:10.721Z,-1.13
2024-01-15T22:16:36.407Z,-1.13
2024-01-15T22:22:05.448Z,-1.15
2024-01-15T22:27:31.096Z,-1.19
2024-01-15T22:32:49.486Z,-1.20
2024-01-15T22:38:15.365Z,-1.19
2024-01-15T22:43:41.126Z,-1.18
2024-01-15T22:49:07.003Z,-1.20
2024-01-15T22:54:31.600Z,-1.22
2024-01-15T22:59:57.445Z,-1.23
2024-01-15T23:05:24.120Z,-1.21
2024-01-15T23:10:48.318Z,-1.15
2024-01-15T23:16:13.982Z,-1.13
2024-01-15T23:21:39.791Z,-1.11
2024-01-15T23:27:05.459Z,-1.11
2024-01-15T23:32:31.185Z,-1.12
2024-01-15T23:37:56.911Z,-1.12
2024-01-15T23:43:21.230Z,-1.11
2024-01-15T23:48:47.039Z,-1.11
2024-01-15T23:54:11.158Z,-1.09
2024-01-15T23:59:37.046Z,-1.10
